createdAt,value
2023-01-29T00:00:16.310Z,22.64
2023-01-29T00:01:15.899Z,22.41
2023-01-29T00:02:15.936Z,22.47
2023-01-29T00:03:15.968Z,22.93
2023-01-29T00:04:15.894Z,23.30
2023-01-29T00:05:27.502Z,21.93
2023-01-29T00:06:16.890Z,23.94
2023-01-29T00:07:15.864Z,23.88
2023-01-29T00:08:15.851Z,23.64
2023-01-29T00:09:15.918Z,22.52
2023-01-29T00:10:16.150Z,24.15
2023-01-29T00:11:15.812Z,22.67
2023-01-29T00:12:15.773Z,22.85
2023-01-29T00:13:15.761Z,22.78
2023-01-29T00:14:15.757Z,22.89
2023-01-29T00:15:15.734Z,24.21
2023-01-29T00:16:15.713Z,22.15
2023-01-29T00:17:15.774Z,23.11
2023-01-29T00:18:15.695Z,21.60
2023-01-29T00:19:15.683Z,22.74
2023-01-29T00:20:16.002Z,22.37
2023-01-29T00:21:15.649Z,23.33
2023-01-29T00:22:15.611Z,23.73
2023-01-29T00:23:15.591Z,23.58
2023-01-29T00:24:15.619Z,22.36
2023-01-29T00:25:15.552Z,23.26
2023-01-29T00:43:15.546Z,23.59
2023-01-29T00:44:15.559Z,23.72
2023-01-29T00:45:15.556Z,24.73
2023-01-29T00:46:15.587Z,24.26
2023-01-29T00:47:15.575Z,23.65
2023-01-29T00:48:15.588Z,24.44
2023-01-29T00:49:15.584Z,23.94
2023-01-29T00:50:15.894Z,23.44
2023-01-29T00:51:15.584Z,23.20
2023-01-29T00:52:15.606Z,24.01
2023-01-29T00:53:15.595Z,23.16
2023-01-29T00:54:15.606Z,22.31
2023-01-29T00:55:15.585Z,23.27
2023-01-29T00:56:16.574Z,25.55
2023-01-29T00:57:15.589Z,24.47
2023-01-29T00:58:15.675Z,23.42
2023-01-29T00:59:15.614Z,24.39
2023-01-29T01:00:16.008Z,26.48
2023-01-29T01:01:15.678Z,23.71
2023-01-29T01:02:15.718Z,24.60
2023-01-29T01:03:15.683Z,23.05
2023-01-29T01:04:15.717Z,24.33
2023-01-29T01:05:15.739Z,25.56
2023-01-29T01:06:15.747Z,25.46
2023-01-29T01:07:15.769Z,24.68
2023-01-29T01:28:16.121Z,25.98
2023-01-29T01:53:21.219Z,24.78
2023-01-29T01:54:21.447Z,26.88
2023-01-29T01:55:21.690Z,27.46
2023-01-29T01:56:21.937Z,25.85
2023-01-29T01:57:22.184Z,28.62
2023-01-29T01:58:22.459Z,26.80
2023-01-29T01:59:22.776Z,26.22
2023-01-29T02:00:22.939Z,27.02
2023-01-29T02:01:25.651Z,26.14
2023-01-29T02:02:23.383Z,26.35
2023-01-29T02:03:23.376Z,25.79
2023-01-29T02:04:23.384Z,26.97
2023-01-29T02:05:23.420Z,28.87
2023-01-29T02:06:23.469Z,26.00
2023-01-29T02:07:23.494Z,27.51
2023-01-29T02:08:23.541Z,28.13
2023-01-29T02:09:23.580Z,27.10
2023-01-29T02:10:23.613Z,27.06
2023-01-29T02:11:23.643Z,26.95
2023-01-29T02:12:23.749Z,26.26
2023-01-29T02:13:23.708Z,26.69
2023-01-29T02:14:23.705Z,26.24
2023-01-29T02:15:23.741Z,27.10
2023-01-29T02:16:23.764Z,26.67
2023-01-29T02:17:23.865Z,26.32
2023-01-29T02:18:23.832Z,26.54
2023-01-29T02:19:23.866Z,26.87
2023-01-29T02:20:23.890Z,26.30
2023-01-29T02:21:23.933Z,26.58
2023-01-29T02:22:23.961Z,26.92
2023-01-29T02:23:24.010Z,26.64
2023-01-29T02:24:24.057Z,26.97
2023-01-29T02:25:24.102Z,25.39
2023-01-29T03:20:31.197Z,27.47
2023-01-29T03:21:31.433Z,27.64
2023-01-29T03:22:31.633Z,27.28
2023-01-29T03:23:31.848Z,27.82
2023-01-29T03:24:32.143Z,28.41
2023-01-29T03:25:32.349Z,27.51
2023-01-29T03:26:32.562Z,28.10
2023-01-29T03:27:32.803Z,29.12
2023-01-29T03:28:33.062Z,27.44
2023-01-29T03:29:33.310Z,26.90
2023-01-29T04:02:41.103Z,28.84
2023-01-29T04:03:41.348Z,26.80
2023-01-29T04:04:41.578Z,29.26
2023-01-29T04:05:41.811Z,29.71
2023-01-29T04:06:42.048Z,26.98
2023-01-29T04:07:42.280Z,28.61
2023-01-29T04:08:42.525Z,29.69
2023-01-29T04:09:42.708Z,26.62
2023-01-29T04:10:42.998Z,29.15
2023-01-29T04:11:43.237Z,28.54
2023-01-29T04:12:43.446Z,28.60
2023-01-29T04:13:43.705Z,29.68
2023-01-29T04:14:43.916Z,28.71
2023-01-29T04:15:44.153Z,29.43
2023-01-29T04:16:44.432Z,28.67
2023-01-29T04:17:44.643Z,29.22
2023-01-29T04:18:44.864Z,27.14
2023-01-29T04:19:45.114Z,27.77
2023-01-29T04:20:45.364Z,28.54
2023-01-29T04:44:51.177Z,29.68
2023-01-29T04:45:51.443Z,27.76
2023-01-29T04:46:51.708Z,28.00
2023-01-29T04:47:51.962Z,29.27
2023-01-29T04:48:52.231Z,29.52
2023-01-29T04:49:52.486Z,27.92
2023-01-29T05:26:01.084Z,27.85
2023-01-29T05:27:01.309Z,26.98
2023-01-29T05:28:01.573Z,26.80
2023-01-29T05:29:01.795Z,28.51
2023-01-29T05:30:02.047Z,28.01
2023-01-29T05:31:02.388Z,27.72
2023-01-29T05:32:02.562Z,27.85
2023-01-29T05:33:02.815Z,27.12
2023-01-29T05:34:03.030Z,26.96
2023-01-29T05:35:03.254Z,26.30
2023-01-29T05:36:04.123Z,26.29
2023-01-29T05:37:03.478Z,27.21
2023-01-29T05:38:03.499Z,26.03
2023-01-29T05:39:03.522Z,25.88
2023-01-29T05:40:03.532Z,27.43
2023-01-29T05:41:03.567Z,26.19
2023-01-29T05:42:03.600Z,28.55
2023-01-29T05:43:03.611Z,28.22
2023-01-29T05:44:03.649Z,28.30
2023-01-29T05:45:03.700Z,27.90
2023-01-29T05:46:03.838Z,26.78
2023-01-29T05:47:03.816Z,27.23
2023-01-29T05:48:03.760Z,27.69
2023-01-29T05:49:03.791Z,27.23
2023-01-29T05:50:03.830Z,28.08
2023-01-29T05:51:04.612Z,26.34
2023-01-29T05:52:03.875Z,27.27
2023-01-29T05:53:03.931Z,27.73
2023-01-29T05:54:03.945Z,27.32
2023-01-29T05:55:03.986Z,25.71
2023-01-29T05:56:04.009Z,26.73
2023-01-29T05:57:04.023Z,26.62
2023-01-29T05:58:05.893Z,27.49
2023-01-29T05:59:04.081Z,27.80
2023-01-29T06:00:04.112Z,26.80
2023-01-29T06:01:04.138Z,21.47
2023-01-29T06:02:04.261Z,19.43
2023-01-29T06:03:04.323Z,20.51
2023-01-29T06:04:04.274Z,23.58
2023-01-29T06:05:04.394Z,20.41
2023-01-29T06:06:04.369Z,16.50
2023-01-29T06:07:04.424Z,16.01
2023-01-29T06:08:04.477Z,16.29
2023-01-29T06:09:04.562Z,16.77
2023-01-29T06:10:04.602Z,16.07
2023-01-29T06:11:04.667Z,11.24
2023-01-29T06:12:04.696Z,11.42
2023-01-29T06:13:04.767Z,11.11
2023-01-29T06:14:04.817Z,10.22
2023-01-29T06:15:04.852Z,10.42
2023-01-29T06:16:04.892Z,10.49
2023-01-29T06:17:04.915Z,9.73
2023-01-29T06:18:04.962Z,10.11
2023-01-29T06:19:05.084Z,10.23
2023-01-29T06:20:05.185Z,11.89
2023-01-29T06:21:05.182Z,10.53
2023-01-29T06:22:05.181Z,11.78
2023-01-29T06:23:05.225Z,14.19
2023-01-29T06:24:05.299Z,11.25
2023-01-29T06:25:05.327Z,11.39
2023-01-29T06:26:05.361Z,11.17
2023-01-29T06:27:05.458Z,10.72
2023-01-29T06:28:05.391Z,11.16
2023-01-29T06:29:05.406Z,8.78
2023-01-29T06:30:05.429Z,9.01
2023-01-29T06:31:22.045Z,9.08
2023-01-29T06:32:06.585Z,9.35
2023-01-29T06:33:05.517Z,9.87
2023-01-29T06:34:05.524Z,10.02
2023-01-29T06:35:05.542Z,8.88
2023-01-29T06:36:05.550Z,9.13
2023-01-29T06:37:05.573Z,8.96
2023-01-29T06:38:05.599Z,8.99
2023-01-29T06:39:05.613Z,8.91
2023-01-29T06:40:05.640Z,9.51
2023-01-29T06:41:05.663Z,9.67
2023-01-29T06:42:05.687Z,9.10
2023-01-29T06:43:05.706Z,8.89
2023-01-29T06:44:05.705Z,8.90
2023-01-29T06:45:05.725Z,9.64
2023-01-29T06:46:05.738Z,8.67
2023-01-29T06:47:05.782Z,8.62
2023-01-29T06:48:05.754Z,9.79
2023-01-29T06:49:05.788Z,9.34
2023-01-29T06:50:05.833Z,9.76
2023-01-29T06:51:06.006Z,9.71
2023-01-29T06:52:06.182Z,9.64
2023-01-29T06:53:06.478Z,9.89
2023-01-29T06:54:06.735Z,9.54
2023-01-29T06:55:06.982Z,9.91
2023-01-29T06:56:07.238Z,9.18
2023-01-29T06:57:07.484Z,10.77
2023-01-29T06:58:07.762Z,9.85
2023-01-29T06:59:08.010Z,10.01
2023-01-29T07:00:08.258Z,9.17
2023-01-29T07:01:08.554Z,9.12
2023-01-29T07:02:08.804Z,9.24
2023-01-29T07:03:08.979Z,9.08
2023-01-29T07:04:09.207Z,9.94
2023-01-29T07:05:09.477Z,9.67
2023-01-29T07:06:09.710Z,9.48
2023-01-29T07:07:09.965Z,8.82
2023-01-29T07:12:11.283Z,9.21
2023-01-29T07:13:11.535Z,9.13
2023-01-29T07:14:11.789Z,8.77
2023-01-29T07:15:12.047Z,9.98
2023-01-29T07:16:12.332Z,9.50
2023-01-29T07:54:21.100Z,9.89
2023-01-29T07:55:21.358Z,9.46
2023-01-29T07:56:21.607Z,9.86
2023-01-29T07:57:21.940Z,10.20
2023-01-29T07:58:22.160Z,9.33
2023-01-29T07:59:22.432Z,10.19
2023-01-29T08:00:22.700Z,10.53
2023-01-29T08:01:23.079Z,10.54
2023-01-29T08:02:23.411Z,10.06
2023-01-29T08:03:23.586Z,10.54
2023-01-29T08:04:23.864Z,10.06
2023-01-29T08:05:24.138Z,10.68
2023-01-29T08:06:24.408Z,9.54
2023-01-29T08:07:24.681Z,10.53
2023-01-29T08:08:24.954Z,9.61
2023-01-29T08:09:25.230Z,9.68
2023-01-29T08:10:25.483Z,9.35
2023-01-29T08:11:25.781Z,10.22
2023-01-29T08:12:26.040Z,9.45
2023-01-29T08:13:26.314Z,9.56
2023-01-29T08:14:26.587Z,10.93
2023-01-29T08:15:26.847Z,9.86
2023-01-29T08:16:27.171Z,10.69
2023-01-29T08:17:27.394Z,10.28
2023-01-29T08:18:27.724Z,11.28
2023-01-29T08:19:27.926Z,11.38
2023-01-29T08:20:28.356Z,10.62
2023-01-29T08:21:28.344Z,9.94
2023-01-29T08:22:28.725Z,11.97
2023-01-29T08:23:28.995Z,10.18
2023-01-29T08:24:41.535Z,11.84
2023-01-29T08:25:30.361Z,10.63
2023-01-29T08:26:29.332Z,11.24
2023-01-29T08:27:29.366Z,11.58
2023-01-29T08:28:29.381Z,10.49
2023-01-29T08:29:29.421Z,11.45
2023-01-29T08:30:29.454Z,11.93
2023-01-29T08:31:29.581Z,11.94
2023-01-29T08:32:29.507Z,10.94
2023-01-29T08:33:38.714Z,11.39
2023-01-29T08:54:31.112Z,11.95
2023-01-29T08:55:31.179Z,11.59
2023-01-29T08:56:31.225Z,12.02
2023-01-29T08:57:31.262Z,11.85
2023-01-29T08:58:31.373Z,11.05
2023-01-29T08:59:31.412Z,11.56
2023-01-29T09:00:31.520Z,11.32
2023-01-29T09:01:31.816Z,11.61
2023-01-29T09:02:31.981Z,11.63
2023-01-29T09:03:32.160Z,11.85
2023-01-29T09:04:32.396Z,11.65
2023-01-29T09:05:32.638Z,11.83
2023-01-29T09:06:32.880Z,12.69
2023-01-29T09:07:33.119Z,12.98
2023-01-29T09:08:33.368Z,12.71
2023-01-29T09:09:33.564Z,11.75
2023-01-29T09:10:33.719Z,11.34
2023-01-29T09:11:34.038Z,13.16
2023-01-29T09:12:34.307Z,12.91
2023-01-29T09:13:34.532Z,12.88
2023-01-29T09:14:34.734Z,13.13
2023-01-29T09:15:34.937Z,11.97
2023-01-29T09:16:35.275Z,13.25
2023-01-29T09:17:35.543Z,12.23
2023-01-29T09:40:41.186Z,15.33
2023-01-29T09:41:41.524Z,17.06
2023-01-29T09:42:41.769Z,14.87
2023-01-29T09:43:42.004Z,16.38
2023-01-29T09:44:42.204Z,15.30
2023-01-29T09:45:42.433Z,15.57
2023-01-29T09:46:42.661Z,17.22
2023-01-29T09:47:42.995Z,17.23
2023-01-29T09:48:43.212Z,18.64
2023-01-29T09:49:43.458Z,16.59
2023-01-29T09:50:43.796Z,17.75
2023-01-29T09:51:44.013Z,18.10
2023-01-29T09:52:44.326Z,18.35
2023-01-29T10:21:51.212Z,17.02
2023-01-29T10:23:51.544Z,15.64
2023-01-29T11:06:01.223Z,14.93
2023-01-29T11:07:01.458Z,14.26
2023-01-29T11:08:01.666Z,13.95
2023-01-29T11:09:01.978Z,15.11
2023-01-29T11:10:02.169Z,15.70
2023-01-29T11:11:02.415Z,15.90
2023-01-29T11:12:02.587Z,15.22
2023-01-29T11:13:02.833Z,14.38
2023-01-29T11:14:03.080Z,15.54
2023-01-29T11:15:03.272Z,13.29
2023-01-29T11:16:03.482Z,13.96
2023-01-29T11:17:03.783Z,14.40
2023-01-29T11:18:03.947Z,14.29
2023-01-29T11:19:04.130Z,13.95
2023-01-29T11:20:04.322Z,14.67
2023-01-29T11:21:04.533Z,14.19
2023-01-29T11:22:04.728Z,14.31
2023-01-29T11:23:06.760Z,13.32
2023-01-29T11:24:05.087Z,13.55
2023-01-29T12:03:11.209Z,11.41
2023-01-29T12:04:11.371Z,9.33
2023-01-29T12:05:11.595Z,9.02
2023-01-29T12:06:11.937Z,9.12
2023-01-29T12:07:12.055Z,9.93
2023-01-29T12:08:12.199Z,11.26
2023-01-29T12:09:12.459Z,11.10
2023-01-29T12:53:21.205Z,12.89
2023-01-29T12:54:21.428Z,13.89
2023-01-29T12:55:22.148Z,12.03
2023-01-29T13:51:31.279Z,12.88
2023-01-29T13:52:31.372Z,13.32
2023-01-29T13:53:31.609Z,12.16
2023-01-29T13:54:31.787Z,14.31
2023-01-29T13:55:31.972Z,12.41
2023-01-29T13:56:32.155Z,13.72
2023-01-29T13:57:32.364Z,13.35
2023-01-29T13:58:32.552Z,12.73
2023-01-29T13:59:32.749Z,13.21
2023-01-29T14:00:32.944Z,14.31
2023-01-29T14:01:33.168Z,13.00
2023-01-29T14:02:33.384Z,13.55
2023-01-29T14:03:56.125Z,13.03
2023-01-29T14:05:33.367Z,13.50
2023-01-29T14:06:33.294Z,13.82
2023-01-29T14:07:33.216Z,12.82
2023-01-29T14:08:33.193Z,11.43
2023-01-29T14:09:33.126Z,12.91
2023-01-29T14:10:33.037Z,12.28
2023-01-29T14:11:32.958Z,12.17
2023-01-29T14:12:33.111Z,11.84
2023-01-29T14:13:33.267Z,11.52
2023-01-29T14:50:41.061Z,13.55
2023-01-29T14:51:41.247Z,12.86
2023-01-29T14:52:41.451Z,14.12
2023-01-29T14:53:41.671Z,13.67
2023-01-29T14:54:41.881Z,13.06
2023-01-29T14:55:42.107Z,14.28
2023-01-29T14:56:42.319Z,14.54
2023-01-29T14:57:42.521Z,14.35
2023-01-29T14:58:42.741Z,13.24
2023-01-29T14:59:42.945Z,13.52
2023-01-29T15:00:43.183Z,13.36
2023-01-29T15:01:43.473Z,14.60
2023-01-29T15:02:43.701Z,14.51
2023-01-29T15:03:43.898Z,15.06
2023-01-29T15:04:44.104Z,14.96
2023-01-29T15:05:44.324Z,14.30
2023-01-29T15:06:44.520Z,14.78
2023-01-29T15:07:44.736Z,14.15
2023-01-29T15:08:44.951Z,14.82
2023-01-29T15:09:45.233Z,13.67
2023-01-29T15:10:45.366Z,15.36
2023-01-29T15:11:45.570Z,14.18
2023-01-29T15:12:45.789Z,15.47
2023-01-29T15:13:45.989Z,14.28
2023-01-29T15:14:46.190Z,13.96
2023-01-29T15:15:46.445Z,14.25
2023-01-29T15:16:46.644Z,15.11
2023-01-29T15:17:46.867Z,14.86
2023-01-29T15:18:47.076Z,13.20
2023-01-29T15:19:47.299Z,14.26
2023-01-29T15:20:47.517Z,13.67
2023-01-29T15:21:47.728Z,14.21
2023-01-29T15:22:47.949Z,12.75
2023-01-29T15:23:48.165Z,14.34
2023-01-29T15:24:48.378Z,13.68
2023-01-29T15:25:48.597Z,13.41
2023-01-29T15:26:48.859Z,13.50
2023-01-29T15:27:48.977Z,13.40
2023-01-29T15:28:58.512Z,13.21
2023-01-29T15:29:50.137Z,13.53
2023-01-29T15:30:49.169Z,12.67
2023-01-29T15:31:49.185Z,13.33
2023-01-29T15:32:48.964Z,12.75
2023-01-29T15:33:49.027Z,13.83
2023-01-29T15:34:48.958Z,12.51
2023-01-29T15:35:51.645Z,12.71
2023-01-29T15:36:48.861Z,12.67
2023-01-29T15:37:48.785Z,13.58
2023-01-29T15:38:48.752Z,12.46
2023-01-29T15:39:48.685Z,13.63
2023-01-29T15:40:48.613Z,12.31
2023-01-29T15:41:48.687Z,13.62
2023-01-29T15:42:48.706Z,11.95
2023-01-29T15:43:48.588Z,12.75
2023-01-29T15:44:48.517Z,12.89
2023-01-29T15:45:48.455Z,13.70
2023-01-29T15:46:48.370Z,13.35
2023-01-29T15:47:48.346Z,11.56
2023-01-29T15:48:48.272Z,12.01
2023-01-29T15:49:48.448Z,11.98
2023-01-29T15:50:48.656Z,12.37
2023-01-29T15:51:48.882Z,11.48
2023-01-29T15:52:49.008Z,12.63
2023-01-29T15:53:49.237Z,12.71
2023-01-29T15:54:49.464Z,12.52
2023-01-29T15:55:49.711Z,12.77
2023-01-29T15:56:49.862Z,12.12
2023-01-29T15:57:50.086Z,12.12
2023-01-29T15:58:50.323Z,13.05
2023-01-29T15:59:50.459Z,11.94
2023-01-29T16:00:50.686Z,12.53
2023-01-29T16:01:50.947Z,11.61
2023-01-29T16:02:51.197Z,12.31
2023-01-29T16:03:51.430Z,11.62
2023-01-29T16:04:51.577Z,11.54
2023-01-29T16:05:51.833Z,10.66
2023-01-29T16:06:51.983Z,11.87
2023-01-29T16:07:52.244Z,11.38
2023-01-29T16:08:52.396Z,11.18
2023-01-29T16:09:52.638Z,11.07
2023-01-29T16:10:52.787Z,11.33
2023-01-29T16:11:53.030Z,10.73
2023-01-29T16:12:53.268Z,11.11
2023-01-29T16:13:53.409Z,11.81
2023-01-29T16:14:53.670Z,11.58
2023-01-29T16:15:53.930Z,9.90
2023-01-29T16:16:54.109Z,12.42
2023-01-29T16:17:54.318Z,12.71
2023-01-29T16:19:00.377Z,13.31
2023-01-29T16:19:55.411Z,12.09
2023-01-29T16:20:54.365Z,12.54
2023-01-29T16:21:54.334Z,12.88
2023-01-29T16:22:54.278Z,13.96
2023-01-29T16:23:54.247Z,14.57
2023-01-29T16:24:54.204Z,14.04
2023-01-29T16:25:54.168Z,15.98
2023-01-29T16:26:54.123Z,17.15
2023-01-29T16:27:54.083Z,15.30
2023-01-29T16:28:54.039Z,16.56
2023-01-29T16:29:54.036Z,16.40
2023-01-29T16:30:54.197Z,15.75
2023-01-29T16:31:55.194Z,17.10
2023-01-29T16:32:53.997Z,16.88
2023-01-29T16:33:53.965Z,18.01
2023-01-29T16:34:53.914Z,18.00
2023-01-29T16:35:53.899Z,16.90
2023-01-29T16:36:54.699Z,17.69
2023-01-29T16:37:53.809Z,18.06
2023-01-29T16:38:53.769Z,18.26
2023-01-29T16:39:53.949Z,18.77
2023-01-29T16:40:54.150Z,19.22
2023-01-29T16:41:54.337Z,19.49
2023-01-29T16:42:54.508Z,18.50
2023-01-29T16:43:54.715Z,18.39
2023-01-29T16:44:54.890Z,18.19
2023-01-29T16:45:55.120Z,17.87
2023-01-29T16:46:55.350Z,17.74
2023-01-29T16:47:55.590Z,19.13
2023-01-29T16:48:55.766Z,18.24
2023-01-29T16:49:56.023Z,17.01
2023-01-29T16:50:56.279Z,18.31
2023-01-29T16:51:56.452Z,16.92
2023-01-29T16:52:57.705Z,16.04
2023-01-29T16:53:56.693Z,16.83
2023-01-29T16:54:56.725Z,16.90
2023-01-29T16:55:56.772Z,16.52
2023-01-29T16:56:56.804Z,17.03
2023-01-29T16:57:56.835Z,17.16
2023-01-29T16:58:56.954Z,17.20
2023-01-29T16:59:56.898Z,16.73
2023-01-29T17:00:56.958Z,17.41
2023-01-29T17:01:56.953Z,16.92
2023-01-29T17:02:56.988Z,16.63
2023-01-29T17:03:57.136Z,16.02
2023-01-29T17:04:57.315Z,16.12
2023-01-29T17:05:57.521Z,16.46
2023-01-29T17:06:57.724Z,16.99
2023-01-29T17:07:57.944Z,16.25
2023-01-29T17:08:58.187Z,15.87
2023-01-29T17:09:58.386Z,15.81
2023-01-29T17:23:01.205Z,17.16
2023-01-29T17:24:01.476Z,14.97
2023-01-29T17:25:01.677Z,15.22
2023-01-29T17:26:01.888Z,14.83
2023-01-29T17:27:02.136Z,16.29
2023-01-29T17:28:02.420Z,14.27
2023-01-29T17:29:02.609Z,15.41
2023-01-29T17:30:02.824Z,14.76
2023-01-29T17:31:06.762Z,15.38
2023-01-29T17:32:03.031Z,15.31
2023-01-29T17:33:02.983Z,15.82
2023-01-29T17:34:02.933Z,15.17
2023-01-29T17:35:02.916Z,15.70
2023-01-29T17:36:02.965Z,14.62
2023-01-29T17:37:02.968Z,15.83
2023-01-29T17:38:02.921Z,15.07
2023-01-29T17:39:02.898Z,15.59
2023-01-29T17:40:05.261Z,15.71
2023-01-29T17:41:02.946Z,15.70
2023-01-29T17:42:02.952Z,14.95
2023-01-29T17:43:02.939Z,15.53
2023-01-29T17:44:02.954Z,15.28
2023-01-29T17:45:02.948Z,13.95
2023-01-29T17:47:02.923Z,15.82
2023-01-29T17:48:02.917Z,15.75
2023-01-29T17:49:02.901Z,14.48
2023-01-29T18:15:02.720Z,15.71
2023-01-29T20:22:11.078Z,15.12
2023-01-29T20:23:11.131Z,14.07
2023-01-29T20:24:11.199Z,14.12
2023-01-29T20:25:11.263Z,14.04
2023-01-29T21:04:13.455Z,13.97
2023-01-29T21:06:13.512Z,13.29
2023-01-29T21:07:13.538Z,14.08
2023-01-29T21:08:13.583Z,14.09
2023-01-29T21:09:13.638Z,14.39
2023-01-29T21:11:13.771Z,14.48
2023-01-29T21:12:13.805Z,14.83
2023-01-29T21:13:13.872Z,16.55
2023-01-29T21:14:13.944Z,18.32
2023-01-29T21:15:14.024Z,18.22
2023-01-29T21:16:14.151Z,15.01
2023-01-29T21:17:14.152Z,15.68
2023-01-29T21:18:14.225Z,16.24
2023-01-29T21:19:14.302Z,14.73
2023-01-29T21:20:14.550Z,14.09
2023-01-29T21:21:14.442Z,15.27
2023-01-29T21:22:14.510Z,13.58
2023-01-29T21:23:14.574Z,14.41
2023-01-29T21:24:14.632Z,14.01
2023-01-29T21:25:14.707Z,14.49
2023-01-29T21:26:14.801Z,14.08
2023-01-29T21:27:14.809Z,14.47
2023-01-29T21:28:14.867Z,15.19
2023-01-29T21:29:14.902Z,13.93
2023-01-29T21:30:15.288Z,15.46
2023-01-29T23:09:21.164Z,10.43
2023-01-29T23:10:21.431Z,9.98
2023-01-29T23:11:21.694Z,10.44
2023-01-29T23:12:21.945Z,10.74
2023-01-29T23:13:22.203Z,9.59
2023-01-29T23:14:22.472Z,10.07
2023-01-29T23:15:22.729Z,9.31
2023-01-29T23:16:23.071Z,9.14
2023-01-29T23:17:23.239Z,9.04
2023-01-29T23:18:23.506Z,10.05
2023-01-29T23:19:23.765Z,9.56
2023-01-29T23:20:24.012Z,9.35
2023-01-29T23:21:24.265Z,9.81
2023-01-29T23:22:24.542Z,10.47
2023-01-29T23:23:24.824Z,10.46
2023-01-29T23:24:25.089Z,8.82
2023-01-29T23:25:25.359Z,10.48
2023-01-29T23:47:31.215Z,6.21
2023-01-29T23:48:31.461Z,6.46
2023-01-29T23:49:31.738Z,5.84
2023-01-29T23:50:32.007Z,6.76
2023-01-29T23:51:32.250Z,7.37
2023-01-29T23:52:32.418Z,7.26
2023-01-29T23:53:32.663Z,7.16
2023-01-29T23:54:32.939Z,6.97
2023-01-29T23:55:33.228Z,6.13
2023-01-29T23:56:33.476Z,5.72
2023-01-29T23:57:33.697Z,5.26
2023-01-29T23:58:33.910Z,5.45
2023-01-29T23:59:34.140Z,6.78
